sensor_id;sensor_type;location;lat;lon;timestamp;P1;durP1;ratioP1;P2;durP2;ratioP2
5428;SDS011;2737;52.386;9.980;2023-08-06T00:00:58;5.77;;;3.37;;
5428;SDS011;2737;52.386;9.980;2023-08-06T00:03:25;4.70;;;3.17;;
5428;SDS011;2737;52.386;9.980;2023-08-06T00:05:52;7.73;;;3.70;;
5428;SDS011;2737;52.386;9.980;2023-08-06T00:08:21;4.07;;;3.60;;
5428;SDS011;2737;52.386;9.980;2023-08-06T00:10:48;8.23;;;4.00;;
5428;SDS011;2737;52.386;9.980;2023-08-06T00:13:15;5.80;;;3.93;;
5428;SDS011;2737;52.386;9.980;2023-08-06T00:15:42;3.80;;;3.37;;
5428;SDS011;2737;52.386;9.980;2023-08-06T00:18:09;5.60;;;4.03;;
5428;SDS011;2737;52.386;9.980;2023-08-06T00:20:38;5.00;;;3.47;;
5428;SDS011;2737;52.386;9.980;2023-08-06T00:23:05;7.37;;;3.63;;
5428;SDS011;2737;52.386;9.980;2023-08-06T00:25:34;4.70;;;3.77;;
5428;SDS011;2737;52.386;9.980;2023-08-06T00:28:01;5.70;;;4.10;;
5428;SDS011;2737;52.386;9.980;2023-08-06T00:30:28;10.20;;;3.27;;
5428;SDS011;2737;52.386;9.980;2023-08-06T00:32:55;5.17;;;3.50;;
5428;SDS011;2737;52.386;9.980;2023-08-06T00:35:22;4.40;;;3.37;;
5428;SDS011;2737;52.386;9.980;2023-08-06T00:37:49;9.17;;;3.80;;
5428;SDS011;2737;52.386;9.980;2023-08-06T00:40:16;4.60;;;4.20;;
5428;SDS011;2737;52.386;9.980;2023-08-06T00:42:47;5.80;;;3.97;;
5428;SDS011;2737;52.386;9.980;2023-08-06T00:45:14;5.90;;;3.80;;
5428;SDS011;2737;52.386;9.980;2023-08-06T00:47:41;6.10;;;4.80;;
5428;SDS011;2737;52.386;9.980;2023-08-06T00:50:08;4.63;;;3.50;;
5428;SDS011;2737;52.386;9.980;2023-08-06T00:52:35;6.27;;;3.10;;
5428;SDS011;2737;52.386;9.980;2023-08-06T00:55:03;6.40;;;4.00;;
5428;SDS011;2737;52.386;9.980;2023-08-06T00:57:31;11.93;;;3.80;;
5428;SDS011;2737;52.386;9.980;2023-08-06T01:00:00;5.87;;;4.00;;
5428;SDS011;2737;52.386;9.980;2023-08-06T01:02:29;5.83;;;4.40;;
5428;SDS011;2737;52.386;9.980;2023-08-06T01:04:56;4.07;;;3.67;;
5428;SDS011;2737;52.386;9.980;2023-08-06T01:07:28;4.50;;;3.63;;
5428;SDS011;2737;52.386;9.980;2023-08-06T01:10:14;5.17;;;3.43;;
5428;SDS011;2737;52.386;9.980;2023-08-06T01:12:51;4.70;;;3.50;;
5428;SDS011;2737;52.386;9.980;2023-08-06T01:15:30;6.17;;;4.10;;
5428;SDS011;2737;52.386;9.980;2023-08-06T01:18:01;5.50;;;4.10;;
5428;SDS011;2737;52.386;9.980;2023-08-06T01:20:30;6.53;;;4.67;;
5428;SDS011;2737;52.386;9.980;2023-08-06T01:22:57;6.83;;;4.70;;
5428;SDS011;2737;52.386;9.980;2023-08-06T01:25:26;5.57;;;4.60;;
5428;SDS011;2737;52.386;9.980;2023-08-06T01:28:01;5.37;;;4.13;;
5428;SDS011;2737;52.386;9.980;2023-08-06T01:30:37;7.13;;;4.97;;
5428;SDS011;2737;52.386;9.980;2023-08-06T01:33:06;5.97;;;4.77;;
5428;SDS011;2737;52.386;9.980;2023-08-06T01:35:42;6.73;;;5.00;;
5428;SDS011;2737;52.386;9.980;2023-08-06T01:38:09;9.53;;;6.87;;
5428;SDS011;2737;52.386;9.980;2023-08-06T01:40:36;7.77;;;5.10;;
5428;SDS011;2737;52.386;9.980;2023-08-06T01:43:03;10.83;;;5.33;;
5428;SDS011;2737;52.386;9.980;2023-08-06T01:45:30;8.40;;;5.40;;
5428;SDS011;2737;52.386;9.980;2023-08-06T01:47:57;12.97;;;6.77;;
5428;SDS011;2737;52.386;9.980;2023-08-06T01:50:24;16.43;;;7.67;;
5428;SDS011;2737;52.386;9.980;2023-08-06T01:52:52;9.03;;;6.67;;
5428;SDS011;2737;52.386;9.980;2023-08-06T01:55:19;10.40;;;6.70;;
5428;SDS011;2737;52.386;9.980;2023-08-06T01:57:46;10.20;;;6.60;;
5428;SDS011;2737;52.386;9.980;2023-08-06T02:00:13;7.23;;;5.90;;
5428;SDS011;2737;52.386;9.980;2023-08-06T02:02:41;8.80;;;6.30;;
5428;SDS011;2737;52.386;9.980;2023-08-06T02:05:08;9.50;;;6.57;;
5428;SDS011;2737;52.386;9.980;2023-08-06T02:07:35;9.63;;;6.43;;
5428;SDS011;2737;52.386;9.980;2023-08-06T02:10:03;9.47;;;5.77;;
5428;SDS011;2737;52.386;9.980;2023-08-06T02:12:30;7.67;;;5.53;;
5428;SDS011;2737;52.386;9.980;2023-08-06T02:14:57;9.40;;;5.90;;
5428;SDS011;2737;52.386;9.980;2023-08-06T02:17:24;8.97;;;6.60;;
5428;SDS011;2737;52.386;9.980;2023-08-06T02:19:51;8.80;;;6.03;;
5428;SDS011;2737;52.386;9.980;2023-08-06T02:22:18;8.87;;;5.50;;
5428;SDS011;2737;52.386;9.980;2023-08-06T02:24:45;8.43;;;5.70;;
5428;SDS011;2737;52.386;9.980;2023-08-06T02:27:14;12.90;;;5.60;;
5428;SDS011;2737;52.386;9.980;2023-08-06T02:29:41;8.37;;;5.73;;
5428;SDS011;2737;52.386;9.980;2023-08-06T02:32:08;8.90;;;5.80;;
5428;SDS011;2737;52.386;9.980;2023-08-06T02:34:35;7.73;;;5.00;;
5428;SDS011;2737;52.386;9.980;2023-08-06T02:37:02;6.07;;;5.10;;
5428;SDS011;2737;52.386;9.980;2023-08-06T02:39:29;10.83;;;4.90;;
5428;SDS011;2737;52.386;9.980;2023-08-06T02:41:56;7.00;;;4.83;;
5428;SDS011;2737;52.386;9.980;2023-08-06T02:44:26;7.77;;;5.00;;
5428;SDS011;2737;52.386;9.980;2023-08-06T02:46:53;7.00;;;5.00;;
5428;SDS011;2737;52.386;9.980;2023-08-06T02:49:20;6.20;;;4.50;;
5428;SDS011;2737;52.386;9.980;2023-08-06T02:51:47;8.77;;;5.10;;
5428;SDS011;2737;52.386;9.980;2023-08-06T02:54:14;9.23;;;5.23;;
5428;SDS011;2737;52.386;9.980;2023-08-06T02:56:42;9.00;;;6.00;;
5428;SDS011;2737;52.386;9.980;2023-08-06T02:59:10;6.40;;;4.83;;
5428;SDS011;2737;52.386;9.980;2023-08-06T03:01:38;8.03;;;4.80;;
5428;SDS011;2737;52.386;9.980;2023-08-06T03:04:06;7.53;;;5.40;;
5428;SDS011;2737;52.386;9.980;2023-08-06T03:06:33;10.03;;;5.50;;
5428;SDS011;2737;52.386;9.980;2023-08-06T03:09:00;7.33;;;4.83;;
5428;SDS011;2737;52.386;9.980;2023-08-06T03:11:27;7.37;;;4.80;;
5428;SDS011;2737;52.386;9.980;2023-08-06T03:13:54;7.20;;;5.00;;
5428;SDS011;2737;52.386;9.980;2023-08-06T03:16:21;9.87;;;4.30;;
5428;SDS011;2737;52.386;9.980;2023-08-06T03:18:49;6.40;;;4.90;;
5428;SDS011;2737;52.386;9.980;2023-08-06T03:21:16;7.47;;;4.93;;
5428;SDS011;2737;52.386;9.980;2023-08-06T03:23:43;7.13;;;5.10;;
5428;SDS011;2737;52.386;9.980;2023-08-06T03:26:13;7.80;;;4.97;;
5428;SDS011;2737;52.386;9.980;2023-08-06T03:28:40;7.23;;;5.87;;
5428;SDS011;2737;52.386;9.980;2023-08-06T03:31:07;15.60;;;6.23;;
5428;SDS011;2737;52.386;9.980;2023-08-06T03:33:34;9.50;;;6.37;;
5428;SDS011;2737;52.386;9.980;2023-08-06T03:36:03;8.60;;;5.60;;
5428;SDS011;2737;52.386;9.980;2023-08-06T03:38:30;10.93;;;5.80;;
5428;SDS011;2737;52.386;9.980;2023-08-06T03:40:57;11.53;;;5.17;;
5428;SDS011;2737;52.386;9.980;2023-08-06T03:43:24;8.90;;;6.07;;
5428;SDS011;2737;52.386;9.980;2023-08-06T03:45:51;15.90;;;6.40;;
5428;SDS011;2737;52.386;9.980;2023-08-06T03:48:18;8.50;;;6.30;;
5428;SDS011;2737;52.386;9.980;2023-08-06T03:50:45;8.33;;;5.73;;
5428;SDS011;2737;52.386;9.980;2023-08-06T03:53:14;10.17;;;6.60;;
5428;SDS011;2737;52.386;9.980;2023-08-06T03:55:41;14.80;;;7.20;;
5428;SDS011;2737;52.386;9.980;2023-08-06T03:58:08;11.80;;;7.77;;
5428;SDS011;2737;52.386;9.980;2023-08-06T04:00:35;10.73;;;6.27;;
5428;SDS011;2737;52.386;9.980;2023-08-06T04:03:02;11.20;;;7.10;;
5428;SDS011;2737;52.386;9.980;2023-08-06T04:05:30;13.23;;;8.07;;
5428;SDS011;2737;52.386;9.980;2023-08-06T04:07:58;11.90;;;7.07;;
5428;SDS011;2737;52.386;9.980;2023-08-06T04:10:26;10.27;;;7.30;;
5428;SDS011;2737;52.386;9.980;2023-08-06T04:12:54;13.03;;;7.90;;
5428;SDS011;2737;52.386;9.980;2023-08-06T04:15:20;12.20;;;7.73;;
5428;SDS011;2737;52.386;9.980;2023-08-06T04:17:47;13.27;;;8.00;;
5428;SDS011;2737;52.386;9.980;2023-08-06T04:20:14;11.17;;;7.50;;
5428;SDS011;2737;52.386;9.980;2023-08-06T04:22:42;12.20;;;7.40;;
5428;SDS011;2737;52.386;9.980;2023-08-06T04:25:09;11.70;;;8.00;;
5428;SDS011;2737;52.386;9.980;2023-08-06T04:27:37;13.47;;;8.37;;
5428;SDS011;2737;52.386;9.980;2023-08-06T04:30:07;11.70;;;7.70;;
5428;SDS011;2737;52.386;9.980;2023-08-06T04:32:34;9.67;;;7.10;;
5428;SDS011;2737;52.386;9.980;2023-08-06T04:35:02;12.40;;;8.37;;
5428;SDS011;2737;52.386;9.980;2023-08-06T04:37:29;14.37;;;8.80;;
5428;SDS011;2737;52.386;9.980;2023-08-06T04:39:56;13.73;;;9.03;;
5428;SDS011;2737;52.386;9.980;2023-08-06T04:42:23;17.73;;;9.60;;
5428;SDS011;2737;52.386;9.980;2023-08-06T04:44:52;18.93;;;8.60;;
5428;SDS011;2737;52.386;9.980;2023-08-06T04:47:19;19.10;;;10.10;;
5428;SDS011;2737;52.386;9.980;2023-08-06T04:49:46;21.10;;;9.50;;
5428;SDS011;2737;52.386;9.980;2023-08-06T04:52:13;16.57;;;9.60;;
5428;SDS011;2737;52.386;9.980;2023-08-06T04:54:40;16.57;;;9.30;;
5428;SDS011;2737;52.386;9.980;2023-08-06T04:57:07;16.73;;;8.80;;
5428;SDS011;2737;52.386;9.980;2023-08-06T04:59:34;20.73;;;8.60;;
5428;SDS011;2737;52.386;9.980;2023-08-06T05:02:03;18.43;;;9.03;;
5428;SDS011;2737;52.386;9.980;2023-08-06T05:04:30;15.87;;;9.03;;
5428;SDS011;2737;52.386;9.980;2023-08-06T05:06:58;14.80;;;9.07;;
5428;SDS011;2737;52.386;9.980;2023-08-06T05:09:25;19.40;;;8.27;;
5428;SDS011;2737;52.386;9.980;2023-08-06T05:11:52;13.87;;;8.50;;
5428;SDS011;2737;52.386;9.980;2023-08-06T05:14:19;13.07;;;8.40;;
5428;SDS011;2737;52.386;9.980;2023-08-06T05:16:46;16.63;;;9.60;;
5428;SDS011;2737;52.386;9.980;2023-08-06T05:19:15;13.70;;;8.70;;
5428;SDS011;2737;52.386;9.980;2023-08-06T05:21:42;14.77;;;9.47;;
5428;SDS011;2737;52.386;9.980;2023-08-06T05:24:09;14.27;;;8.60;;
5428;SDS011;2737;52.386;9.980;2023-08-06T05:26:36;18.27;;;9.67;;
5428;SDS011;2737;52.386;9.980;2023-08-06T05:29:03;15.63;;;8.90;;
5428;SDS011;2737;52.386;9.980;2023-08-06T05:31:30;11.80;;;8.30;;
5428;SDS011;2737;52.386;9.980;2023-08-06T05:33:57;14.43;;;8.63;;
5428;SDS011;2737;52.386;9.980;2023-08-06T05:36:25;14.70;;;8.50;;
5428;SDS011;2737;52.386;9.980;2023-08-06T05:38:52;17.30;;;9.80;;
5428;SDS011;2737;52.386;9.980;2023-08-06T05:41:19;16.20;;;8.67;;
5428;SDS011;2737;52.386;9.980;2023-08-06T05:43:46;13.57;;;8.47;;
5428;SDS011;2737;52.386;9.980;2023-08-06T05:46:13;14.30;;;8.77;;
5428;SDS011;2737;52.386;9.980;2023-08-06T05:48:40;14.23;;;8.30;;
5428;SDS011;2737;52.386;9.980;2023-08-06T05:51:07;16.13;;;9.40;;
5428;SDS011;2737;52.386;9.980;2023-08-06T05:53:35;12.83;;;8.43;;
5428;SDS011;2737;52.386;9.980;2023-08-06T05:56:03;15.77;;;8.83;;
5428;SDS011;2737;52.386;9.980;2023-08-06T05:58:30;13.93;;;9.30;;
5428;SDS011;2737;52.386;9.980;2023-08-06T06:00:57;12.87;;;8.50;;
5428;SDS011;2737;52.386;9.980;2023-08-06T06:03:24;25.53;;;9.47;;
5428;SDS011;2737;52.386;9.980;2023-08-06T06:05:51;12.53;;;8.60;;
5428;SDS011;2737;52.386;9.980;2023-08-06T06:08:18;16.47;;;8.97;;
5428;SDS011;2737;52.386;9.980;2023-08-06T06:10:47;13.00;;;8.83;;
5428;SDS011;2737;52.386;9.980;2023-08-06T06:13:14;12.40;;;7.97;;
5428;SDS011;2737;52.386;9.980;2023-08-06T06:15:41;20.10;;;8.10;;
5428;SDS011;2737;52.386;9.980;2023-08-06T06:18:08;13.73;;;8.80;;
5428;SDS011;2737;52.386;9.980;2023-08-06T06:20:35;14.33;;;8.57;;
5428;SDS011;2737;52.386;9.980;2023-08-06T06:23:02;10.53;;;6.93;;
5428;SDS011;2737;52.386;9.980;2023-08-06T06:25:29;13.77;;;7.70;;
5428;SDS011;2737;52.386;9.980;2023-08-06T06:27:57;15.30;;;7.60;;
5428;SDS011;2737;52.386;9.980;2023-08-06T06:30:24;9.30;;;6.30;;
5428;SDS011;2737;52.386;9.980;2023-08-06T06:32:51;9.93;;;6.30;;
5428;SDS011;2737;52.386;9.980;2023-08-06T06:35:18;10.00;;;7.03;;
5428;SDS011;2737;52.386;9.980;2023-08-06T06:37:45;12.00;;;6.60;;
5428;SDS011;2737;52.386;9.980;2023-08-06T06:40:12;9.73;;;5.90;;
5428;SDS011;2737;52.386;9.980;2023-08-06T06:42:39;9.40;;;5.83;;
5428;SDS011;2737;52.386;9.980;2023-08-06T06:45:09;8.67;;;6.23;;
5428;SDS011;2737;52.386;9.980;2023-08-06T06:47:36;9.77;;;5.40;;
5428;SDS011;2737;52.386;9.980;2023-08-06T06:50:03;7.23;;;4.53;;
5428;SDS011;2737;52.386;9.980;2023-08-06T06:52:30;5.43;;;4.33;;
5428;SDS011;2737;52.386;9.980;2023-08-06T06:54:58;7.27;;;4.20;;
5428;SDS011;2737;52.386;9.980;2023-08-06T06:57:24;6.30;;;3.93;;
5428;SDS011;2737;52.386;9.980;2023-08-06T06:59:51;6.50;;;4.07;;
5428;SDS011;2737;52.386;9.980;2023-08-06T07:02:20;7.07;;;4.00;;
5428;SDS011;2737;52.386;9.980;2023-08-06T07:04:47;8.50;;;5.43;;
5428;SDS011;2737;52.386;9.980;2023-08-06T07:07:14;5.23;;;3.73;;
5428;SDS011;2737;52.386;9.980;2023-08-06T07:09:41;4.80;;;3.53;;
5428;SDS011;2737;52.386;9.980;2023-08-06T07:12:08;5.93;;;3.17;;
5428;SDS011;2737;52.386;9.980;2023-08-06T07:14:35;5.10;;;3.83;;
5428;SDS011;2737;52.386;9.980;2023-08-06T07:17:02;7.40;;;3.50;;
5428;SDS011;2737;52.386;9.980;2023-08-06T07:19:31;8.83;;;3.33;;
5428;SDS011;2737;52.386;9.980;2023-08-06T07:21:58;7.53;;;2.90;;
5428;SDS011;2737;52.386;9.980;2023-08-06T07:24:25;6.70;;;3.47;;
5428;SDS011;2737;52.386;9.980;2023-08-06T07:26:52;7.90;;;3.60;;
5428;SDS011;2737;52.386;9.980;2023-08-06T07:29:19;3.53;;;2.80;;
5428;SDS011;2737;52.386;9.980;2023-08-06T07:31:47;5.40;;;2.97;;
5428;SDS011;2737;52.386;9.980;2023-08-06T07:34:15;4.73;;;2.57;;
5428;SDS011;2737;52.386;9.980;2023-08-06T07:36:44;5.60;;;2.40;;
5428;SDS011;2737;52.386;9.980;2023-08-06T07:39:12;4.87;;;2.77;;
5428;SDS011;2737;52.386;9.980;2023-08-06T07:41:39;7.70;;;2.57;;
5428;SDS011;2737;52.386;9.980;2023-08-06T07:44:06;5.23;;;2.57;;
5428;SDS011;2737;52.386;9.980;2023-08-06T07:46:35;1.90;;;1.70;;
5428;SDS011;2737;52.386;9.980;2023-08-06T07:49:05;2.37;;;2.00;;
5428;SDS011;2737;52.386;9.980;2023-08-06T07:51:33;2.27;;;2.07;;
5428;SDS011;2737;52.386;9.980;2023-08-06T07:54:03;4.10;;;2.37;;
5428;SDS011;2737;52.386;9.980;2023-08-06T07:56:30;2.07;;;1.90;;
5428;SDS011;2737;52.386;9.980;2023-08-06T07:58:58;5.80;;;2.03;;
5428;SDS011;2737;52.386;9.980;2023-08-06T08:01:26;1.90;;;1.70;;
5428;SDS011;2737;52.386;9.980;2023-08-06T08:03:53;3.50;;;1.83;;
5428;SDS011;2737;52.386;9.980;2023-08-06T08:06:20;3.90;;;1.60;;
5428;SDS011;2737;52.386;9.980;2023-08-06T08:08:48;2.40;;;1.90;;
5428;SDS011;2737;52.386;9.980;2023-08-06T08:11:17;4.60;;;1.77;;
5428;SDS011;2737;52.386;9.980;2023-08-06T08:13:44;2.17;;;1.53;;
5428;SDS011;2737;52.386;9.980;2023-08-06T08:16:11;2.97;;;1.70;;
5428;SDS011;2737;52.386;9.980;2023-08-06T08:18:38;1.70;;;1.50;;
5428;SDS011;2737;52.386;9.980;2023-08-06T08:21:05;1.47;;;1.37;;
5428;SDS011;2737;52.386;9.980;2023-08-06T08:23:32;2.17;;;1.37;;
5428;SDS011;2737;52.386;9.980;2023-08-06T08:25:59;8.70;;;1.60;;
5428;SDS011;2737;52.386;9.980;2023-08-06T08:28:30;4.10;;;1.50;;
5428;SDS011;2737;52.386;9.980;2023-08-06T08:30:57;1.50;;;1.40;;
5428;SDS011;2737;52.386;9.980;2023-08-06T08:33:24;4.90;;;1.50;;
5428;SDS011;2737;52.386;9.980;2023-08-06T08:35:51;2.63;;;1.63;;
5428;SDS011;2737;52.386;9.980;2023-08-06T08:38:18;4.03;;;1.20;;
5428;SDS011;2737;52.386;9.980;2023-08-06T08:40:45;3.07;;;1.40;;
5428;SDS011;2737;52.386;9.980;2023-08-06T08:43:15;1.43;;;1.23;;
5428;SDS011;2737;52.386;9.980;2023-08-06T08:45:43;2.40;;;1.60;;
5428;SDS011;2737;52.386;9.980;2023-08-06T08:48:15;2.47;;;1.70;;
5428;SDS011;2737;52.386;9.980;2023-08-06T08:50:44;1.67;;;1.30;;
5428;SDS011;2737;52.386;9.980;2023-08-06T08:53:13;2.67;;;1.30;;
5428;SDS011;2737;52.386;9.980;2023-08-06T08:55:41;1.63;;;1.50;;
5428;SDS011;2737;52.386;9.980;2023-08-06T08:58:09;2.10;;;1.67;;
5428;SDS011;2737;52.386;9.980;2023-08-06T09:00:36;1.80;;;1.40;;
5428;SDS011;2737;52.386;9.980;2023-08-06T09:03:05;1.80;;;1.43;;
5428;SDS011;2737;52.386;9.980;2023-08-06T09:05:33;1.60;;;1.37;;
5428;SDS011;2737;52.386;9.980;2023-08-06T09:08:02;2.47;;;1.30;;
5428;SDS011;2737;52.386;9.980;2023-08-06T09:10:29;3.53;;;1.70;;
5428;SDS011;2737;52.386;9.980;2023-08-06T09:12:57;1.60;;;1.50;;
5428;SDS011;2737;52.386;9.980;2023-08-06T09:15:26;2.70;;;1.60;;
5428;SDS011;2737;52.386;9.980;2023-08-06T09:17:53;3.30;;;1.50;;
5428;SDS011;2737;52.386;9.980;2023-08-06T09:20:22;2.07;;;1.60;;
5428;SDS011;2737;52.386;9.980;2023-08-06T09:22:49;2.00;;;1.50;;
5428;SDS011;2737;52.386;9.980;2023-08-06T09:25:20;1.67;;;1.37;;
5428;SDS011;2737;52.386;9.980;2023-08-06T09:27:49;12.23;;;1.90;;
5428;SDS011;2737;52.386;9.980;2023-08-06T09:30:28;1.53;;;1.43;;
5428;SDS011;2737;52.386;9.980;2023-08-06T09:32:57;2.23;;;1.60;;
5428;SDS011;2737;52.386;9.980;2023-08-06T09:35:27;2.20;;;1.60;;
5428;SDS011;2737;52.386;9.980;2023-08-06T09:37:55;2.90;;;1.40;;
5428;SDS011;2737;52.386;9.980;2023-08-06T09:42:53;1.70;;;1.57;;
5428;SDS011;2737;52.386;9.980;2023-08-06T09:45:20;2.83;;;1.53;;
5428;SDS011;2737;52.386;9.980;2023-08-06T09:47:48;2.30;;;1.20;;
5428;SDS011;2737;52.386;9.980;2023-08-06T09:50:16;2.10;;;1.67;;
5428;SDS011;2737;52.386;9.980;2023-08-06T09:52:45;1.67;;;1.50;;
5428;SDS011;2737;52.386;9.980;2023-08-06T09:55:13;1.80;;;1.37;;
5428;SDS011;2737;52.386;9.980;2023-08-06T09:57:42;3.05;;;1.70;;
5428;SDS011;2737;52.386;9.980;2023-08-06T10:00:09;4.60;;;1.63;;
5428;SDS011;2737;52.386;9.980;2023-08-06T10:02:38;1.70;;;1.57;;
5428;SDS011;2737;52.386;9.980;2023-08-06T10:05:07;1.60;;;1.50;;
5428;SDS011;2737;52.386;9.980;2023-08-06T10:07:34;1.90;;;1.40;;
5428;SDS011;2737;52.386;9.980;2023-08-06T10:10:03;1.60;;;1.50;;
5428;SDS011;2737;52.386;9.980;2023-08-06T10:12:31;2.60;;;1.90;;
5428;SDS011;2737;52.386;9.980;2023-08-06T10:15:01;2.97;;;1.70;;
5428;SDS011;2737;52.386;9.980;2023-08-06T10:17:32;1.90;;;1.60;;
5428;SDS011;2737;52.386;9.980;2023-08-06T10:20:02;1.90;;;1.70;;
5428;SDS011;2737;52.386;9.980;2023-08-06T10:22:32;1.87;;;1.50;;
5428;SDS011;2737;52.386;9.980;2023-08-06T10:25:00;4.20;;;1.60;;
5428;SDS011;2737;52.386;9.980;2023-08-06T10:27:31;2.37;;;1.30;;
5428;SDS011;2737;52.386;9.980;2023-08-06T10:32:48;6.13;;;1.90;;
5428;SDS011;2737;52.386;9.980;2023-08-06T10:35:28;1.83;;;1.50;;
5428;SDS011;2737;52.386;9.980;2023-08-06T10:38:02;1.98;;;1.60;;
5428;SDS011;2737;52.386;9.980;2023-08-06T10:40:30;2.20;;;1.47;;
5428;SDS011;2737;52.386;9.980;2023-08-06T10:43:02;2.93;;;1.80;;
5428;SDS011;2737;52.386;9.980;2023-08-06T10:45:33;3.67;;;1.70;;
5428;SDS011;2737;52.386;9.980;2023-08-06T10:48:01;2.40;;;2.20;;
5428;SDS011;2737;52.386;9.980;2023-08-06T10:50:28;2.60;;;2.00;;
5428;SDS011;2737;52.386;9.980;2023-08-06T10:52:56;2.97;;;2.43;;
5428;SDS011;2737;52.386;9.980;2023-08-06T10:55:24;2.50;;;2.20;;
5428;SDS011;2737;52.386;9.980;2023-08-06T10:57:53;3.27;;;1.87;;
5428;SDS011;2737;52.386;9.980;2023-08-06T11:00:22;2.73;;;2.00;;
5428;SDS011;2737;52.386;9.980;2023-08-06T11:02:49;2.00;;;1.70;;
5428;SDS011;2737;52.386;9.980;2023-08-06T11:05:18;4.83;;;2.10;;
5428;SDS011;2737;52.386;9.980;2023-08-06T11:07:45;1.47;;;1.37;;
5428;SDS011;2737;52.386;9.980;2023-08-06T11:10:14;3.00;;;1.83;;
5428;SDS011;2737;52.386;9.980;2023-08-06T11:12:41;2.70;;;1.90;;
5428;SDS011;2737;52.386;9.980;2023-08-06T11:15:08;1.93;;;1.67;;
5428;SDS011;2737;52.386;9.980;2023-08-06T11:17:39;2.00;;;1.80;;
5428;SDS011;2737;52.386;9.980;2023-08-06T11:20:07;3.23;;;1.93;;
5428;SDS011;2737;52.386;9.980;2023-08-06T11:22:35;3.20;;;1.97;;
5428;SDS011;2737;52.386;9.980;2023-08-06T11:25:03;2.67;;;1.80;;
5428;SDS011;2737;52.386;9.980;2023-08-06T11:27:30;3.47;;;1.83;;
5428;SDS011;2737;52.386;9.980;2023-08-06T11:29:58;3.27;;;2.10;;
5428;SDS011;2737;52.386;9.980;2023-08-06T11:32:25;2.60;;;1.90;;
5428;SDS011;2737;52.386;9.980;2023-08-06T11:34:53;2.63;;;1.83;;
5428;SDS011;2737;52.386;9.980;2023-08-06T11:37:21;2.93;;;1.60;;
5428;SDS011;2737;52.386;9.980;2023-08-06T11:39:50;5.40;;;1.70;;
5428;SDS011;2737;52.386;9.980;2023-08-06T11:42:18;2.70;;;2.00;;
5428;SDS011;2737;52.386;9.980;2023-08-06T11:44:45;2.37;;;2.00;;
5428;SDS011;2737;52.386;9.980;2023-08-06T11:47:13;3.63;;;2.23;;
5428;SDS011;2737;52.386;9.980;2023-08-06T11:49:42;2.13;;;1.70;;
5428;SDS011;2737;52.386;9.980;2023-08-06T11:52:14;3.10;;;2.28;;
5428;SDS011;2737;52.386;9.980;2023-08-06T11:54:46;3.73;;;1.80;;
5428;SDS011;2737;52.386;9.980;2023-08-06T11:57:15;2.00;;;1.80;;
5428;SDS011;2737;52.386;9.980;2023-08-06T11:59:43;3.83;;;2.00;;
5428;SDS011;2737;52.386;9.980;2023-08-06T12:02:10;2.13;;;1.90;;
5428;SDS011;2737;52.386;9.980;2023-08-06T12:07:29;3.43;;;1.70;;
5428;SDS011;2737;52.386;9.980;2023-08-06T12:09:56;2.30;;;1.80;;
5428;SDS011;2737;52.386;9.980;2023-08-06T12:12:24;4.20;;;1.93;;
5428;SDS011;2737;52.386;9.980;2023-08-06T12:14:51;2.53;;;2.00;;
5428;SDS011;2737;52.386;9.980;2023-08-06T12:17:18;2.80;;;1.63;;
5428;SDS011;2737;52.386;9.980;2023-08-06T12:19:45;2.97;;;1.97;;
5428;SDS011;2737;52.386;9.980;2023-08-06T12:22:13;3.50;;;2.00;;
5428;SDS011;2737;52.386;9.980;2023-08-06T12:24:42;3.30;;;1.60;;
5428;SDS011;2737;52.386;9.980;2023-08-06T12:27:09;3.50;;;2.00;;
5428;SDS011;2737;52.386;9.980;2023-08-06T12:29:37;4.27;;;1.87;;
5428;SDS011;2737;52.386;9.980;2023-08-06T12:32:07;3.83;;;2.00;;
5428;SDS011;2737;52.386;9.980;2023-08-06T12:34:34;4.43;;;2.22;;
5428;SDS011;2737;52.386;9.980;2023-08-06T12:37:01;2.25;;;1.70;;
5428;SDS011;2737;52.386;9.980;2023-08-06T12:39:29;1.60;;;1.50;;
5428;SDS011;2737;52.386;9.980;2023-08-06T12:41:59;2.73;;;1.90;;
5428;SDS011;2737;52.386;9.980;2023-08-06T12:44:26;1.90;;;1.47;;
5428;SDS011;2737;52.386;9.980;2023-08-06T12:46:54;2.30;;;1.80;;
5428;SDS011;2737;52.386;9.980;2023-08-06T12:49:21;2.53;;;1.42;;
5428;SDS011;2737;52.386;9.980;2023-08-06T12:51:49;2.50;;;1.50;;
5428;SDS011;2737;52.386;9.980;2023-08-06T12:54:16;1.83;;;1.60;;
5428;SDS011;2737;52.386;9.980;2023-08-06T12:56:44;3.20;;;1.70;;
5428;SDS011;2737;52.386;9.980;2023-08-06T12:59:13;1.60;;;1.30;;
5428;SDS011;2737;52.386;9.980;2023-08-06T13:01:41;7.28;;;1.90;;
5428;SDS011;2737;52.386;9.980;2023-08-06T13:04:08;3.00;;;1.93;;
5428;SDS011;2737;52.386;9.980;2023-08-06T13:06:35;3.20;;;1.73;;
5428;SDS011;2737;52.386;9.980;2023-08-06T13:09:02;2.57;;;1.80;;
5428;SDS011;2737;52.386;9.980;2023-08-06T13:11:31;6.83;;;2.00;;
5428;SDS011;2737;52.386;9.980;2023-08-06T13:14:00;3.15;;;2.17;;
5428;SDS011;2737;52.386;9.980;2023-08-06T13:16:32;2.67;;;1.85;;
5428;SDS011;2737;52.386;9.980;2023-08-06T13:18:59;1.70;;;1.57;;
5428;SDS011;2737;52.386;9.980;2023-08-06T13:21:35;2.70;;;2.00;;
5428;SDS011;2737;52.386;9.980;2023-08-06T13:24:28;1.70;;;1.60;;
5428;SDS011;2737;52.386;9.980;2023-08-06T13:26:56;5.40;;;2.13;;
5428;SDS011;2737;52.386;9.980;2023-08-06T13:29:24;1.65;;;1.50;;
5428;SDS011;2737;52.386;9.980;2023-08-06T13:31:52;2.90;;;1.55;;
5428;SDS011;2737;52.386;9.980;2023-08-06T13:34:20;2.67;;;1.43;;
5428;SDS011;2737;52.386;9.980;2023-08-06T13:36:47;1.40;;;1.30;;
5428;SDS011;2737;52.386;9.980;2023-08-06T13:39:15;1.93;;;1.70;;
5428;SDS011;2737;52.386;9.980;2023-08-06T13:41:42;3.40;;;1.70;;
5428;SDS011;2737;52.386;9.980;2023-08-06T13:44:10;1.90;;;1.50;;
5428;SDS011;2737;52.386;9.980;2023-08-06T13:46:40;1.83;;;1.65;;
5428;SDS011;2737;52.386;9.980;2023-08-06T13:49:09;1.55;;;1.45;;
5428;SDS011;2737;52.386;9.980;2023-08-06T13:51:37;4.60;;;1.90;;
5428;SDS011;2737;52.386;9.980;2023-08-06T13:54:05;1.67;;;1.50;;
5428;SDS011;2737;52.386;9.980;2023-08-06T13:56:32;2.30;;;2.10;;
5428;SDS011;2737;52.386;9.980;2023-08-06T13:58:59;1.77;;;1.37;;
5428;SDS011;2737;52.386;9.980;2023-08-06T14:01:26;5.20;;;1.67;;
5428;SDS011;2737;52.386;9.980;2023-08-06T14:03:54;2.60;;;1.93;;
5428;SDS011;2737;52.386;9.980;2023-08-06T14:06:22;2.40;;;1.70;;
5428;SDS011;2737;52.386;9.980;2023-08-06T14:08:49;1.80;;;1.40;;
5428;SDS011;2737;52.386;9.980;2023-08-06T14:11:16;2.03;;;1.80;;
5428;SDS011;2737;52.386;9.980;2023-08-06T14:13:43;1.80;;;1.70;;
5428;SDS011;2737;52.386;9.980;2023-08-06T14:16:10;1.80;;;1.37;;
5428;SDS011;2737;52.386;9.980;2023-08-06T14:18:37;1.90;;;1.40;;
5428;SDS011;2737;52.386;9.980;2023-08-06T14:21:06;1.50;;;1.40;;
5428;SDS011;2737;52.386;9.980;2023-08-06T14:23:34;1.80;;;1.53;;
5428;SDS011;2737;52.386;9.980;2023-08-06T14:26:01;2.13;;;1.43;;
5428;SDS011;2737;52.386;9.980;2023-08-06T14:28:28;2.97;;;1.70;;
5428;SDS011;2737;52.386;9.980;2023-08-06T14:30:55;1.60;;;1.47;;
5428;SDS011;2737;52.386;9.980;2023-08-06T14:33:22;1.70;;;1.40;;
5428;SDS011;2737;52.386;9.980;2023-08-06T14:35:50;1.30;;;1.20;;
5428;SDS011;2737;52.386;9.980;2023-08-06T14:38:17;4.60;;;1.50;;
5428;SDS011;2737;52.386;9.980;2023-08-06T14:40:45;1.50;;;1.40;;
5428;SDS011;2737;52.386;9.980;2023-08-06T14:43:12;1.50;;;1.27;;
5428;SDS011;2737;52.386;9.980;2023-08-06T14:45:39;1.40;;;1.30;;
5428;SDS011;2737;52.386;9.980;2023-08-06T14:48:06;2.60;;;1.20;;
5428;SDS011;2737;52.386;9.980;2023-08-06T14:50:33;1.47;;;1.33;;
5428;SDS011;2737;52.386;9.980;2023-08-06T14:53:00;1.27;;;1.10;;
5428;SDS011;2737;52.386;9.980;2023-08-06T14:55:29;2.70;;;1.40;;
5428;SDS011;2737;52.386;9.980;2023-08-06T14:57:57;1.52;;;1.20;;
5428;SDS011;2737;52.386;9.980;2023-08-06T15:00:25;1.83;;;1.20;;
5428;SDS011;2737;52.386;9.980;2023-08-06T15:02:52;2.03;;;1.63;;
5428;SDS011;2737;52.386;9.980;2023-08-06T15:05:19;1.60;;;1.50;;
5428;SDS011;2737;52.386;9.980;2023-08-06T15:07:46;2.07;;;1.63;;
5428;SDS011;2737;52.386;9.980;2023-08-06T15:10:13;2.30;;;1.67;;
5428;SDS011;2737;52.386;9.980;2023-08-06T15:12:40;1.80;;;1.67;;
5428;SDS011;2737;52.386;9.980;2023-08-06T15:15:09;2.13;;;1.83;;
5428;SDS011;2737;52.386;9.980;2023-08-06T15:17:36;3.20;;;1.50;;
5428;SDS011;2737;52.386;9.980;2023-08-06T15:20:04;2.10;;;1.40;;
5428;SDS011;2737;52.386;9.980;2023-08-06T15:22:32;2.17;;;1.60;;
5428;SDS011;2737;52.386;9.980;2023-08-06T15:24:59;4.10;;;1.87;;